Greenville, TX

5:26 PM CST on February 10, 2016 (GMT -0600)
Majors | | Change Station
CLOSE
Current Station
Airport
Location: Greenville,
Elevation: 535 ft
Nearby Weather Stations

Elev 535 ft 33.07 °N, 96.07 °W | Updated 11 minutes ago

Clear
Clear
68 °F
Feels Like 68 °F
N
14
Wind Variable Wind from South
Gusts 18 mph

Today
High -- | Low -- °F
--% Chance of Precip.
Yesterday
High -- | Low -- °F
Precip. -- in
Pressure 30.10 in
Visibility 10.0 miles
Clouds Clear
Dew Point 32 °F
Humidity 26%
Rainfall 0.00 in
Snow Depth Not available.
7:12 AM 6:04 PM
Waxing Crescent, 8% visible
METAR KGVT 102315Z AUTO 19012G16KT 10SM CLR 20/00 A3010 RMK AO2
Pressure 30.10 in
Visibility 10.0 miles
Clouds Clear
Dew Point 32 °F
Humidity 26%
Rainfall 0.00 in
Snow Depth Not available.
7:12 AM 6:04 PM
Waxing Crescent, 8% visible
METAR KGVT 102315Z AUTO 19012G16KT 10SM CLR 20/00 A3010 RMK AO2

10-Day Weather Forecast

Almanac

Astronomy

Feb. 10, 2016 Rise Set
Actual Time
Civil Twilight
Nautical Twilight
Astronomical Twilight
Moon
Length of Visible Light
Length of Day
Tomorrow will be .
, % of the Moon is Illuminated

Today's Extremes

State Highs State Lows

Community

WunderPhotos

Upload Photos

1,891,935 photos uploaded!

WunderBlog® & News

Nearby

Air Quality

  Air Quality AQ Index Pollutant
Not available.

Snow Depth

Station Depth Elevation

Earthquake Activity

City Distance Mag. Time & Date
Minimum magnitude displayed is 2.5.

Coastal Water Temperatures

Place Temperature

Stations

Nearby Weather Stations

Station Location Temp. Windchill Dew Point Humidity Wind Precip. Elev Updated Type
                   

Watches & Warnings

There are currently no watches in effect.